Time;durP1;ratioP1;P1;durP2;ratioP2;P2;SDS_P1;SDS_P2;PMS_P1;PMS_P2;Temp;Humidity;BMP_temperature;BMP_pressure;BME280_temperature;BME280_humidity;BME280_pressure;Samples;Min_cycle;Max_cycle;Signal;HPM_P1;HPM_P2
2022/11/24 00:00:01;;;;;;;142.87;54.57;;;;;;;2.25;100.00;99867.02;3628407;80;31735;-84
2022/11/24 00:05:01;;;;;;;120.77;44.63;;;;;;;2.25;100.00;99867.02;3622333;80;99054;-85
2022/11/24 00:10:03;;;;;;;115.83;46.17;;;;;;;2.25;100.00;99867.59;3638527;80;31665;-85
2022/11/24 00:15:05;;;;;;;115.10;45.98;;;;;;;2.24;100.00;99867.38;3622052;80;99089;-86
2022/11/24 00:20:07;;;;;;;119.83;46.13;;;;;;;2.24;100.00;99870.86;3639744;80;32209;-84
2022/11/24 00:25:08;;;;;;;106.67;43.43;;;;;;;2.23;100.00;99867.92;3631251;79;98675;-85
2022/11/24 00:30:10;;;;;;;117.83;45.07;;;;;;;2.25;100.00;99876.52;3626807;80;32250;-85
2022/11/24 00:35:11;;;;;;;104.97;42.60;;;;;;;2.32;100.00;99890.91;3621831;80;98708;-85
2022/11/24 00:40:12;;;;;;;112.80;43.80;;;;;;;2.36;100.00;99897.27;3625922;80;31578;-85
2022/11/24 00:45:13;;;;;;;111.13;42.43;;;;;;;2.27;100.00;99895.19;3629128;80;98961;-84
2022/11/24 00:50:14;;;;;;;114.23;42.33;;;;;;;2.27;100.00;99895.19;3636592;80;31574;-84
2022/11/24 00:55:14;;;;;;;115.17;43.17;;;;;;;2.22;100.00;99897.56;3635534;80;98703;-85
2022/11/24 01:00:17;;;;;;;103.40;40.80;;;;;;;2.15;100.00;99891.89;3622123;80;31601;-85
2022/11/24 01:05:18;;;;;;;127.00;49.10;;;;;;;2.16;100.00;99888.59;3628627;80;99088;-85
2022/11/24 01:10:18;;;;;;;116.67;44.00;;;;;;;2.14;100.00;99893.58;3635258;80;32084;-85
2022/11/24 01:15:20;;;;;;;118.03;46.93;;;;;;;2.11;100.00;99894.23;3617266;80;98769;-85
2022/11/24 01:20:21;;;;;;;116.97;46.43;;;;;;;2.10;100.00;99904.86;3640833;80;32847;-86
2022/11/24 01:25:23;;;;;;;113.33;48.03;;;;;;;2.09;100.00;99899.98;3625195;79;98652;-86
2022/11/24 01:30:23;;;;;;;107.33;43.33;;;;;;;2.10;100.00;99902.14;3629365;80;31623;-85
2022/11/24 01:35:24;;;;;;;108.34;43.94;;;;;;;2.09;100.00;99898.62;3616002;80;98690;-85
2022/11/24 01:40:25;;;;;;;120.20;46.63;;;;;;;2.11;100.00;99909.96;3631210;80;35080;-85
2022/11/24 01:45:34;;;;;;;115.40;43.20;;;;;;;2.12;100.00;99920.23;3627958;80;98886;-85
2022/11/24 01:50:36;;;;;;;109.17;42.90;;;;;;;2.17;100.00;99919.48;3633344;80;27872;-85
2022/11/24 01:55:39;;;;;;;109.90;43.28;;;;;;;2.15;100.00;99914.16;3625353;80;98891;-86
2022/11/24 02:00:44;;;;;;;110.40;44.80;;;;;;;2.11;100.00;99915.39;3641129;80;30781;-86
2022/11/24 02:06:13;;;;;;;112.17;45.28;;;;;;;2.18;100.00;99910.20;3614031;80;98948;-85
2022/11/24 02:11:14;;;;;;;112.47;43.40;;;;;;;2.25;100.00;99910.45;3632004;80;31474;-86
2022/11/24 02:16:15;;;;;;;98.20;39.30;;;;;;;2.28;100.00;99922.02;3627635;80;98895;-86
2022/11/24 02:21:17;;;;;;;101.10;40.47;;;;;;;2.32;100.00;99926.20;3638043;79;34844;-85
2022/11/24 02:26:43;;;;;;;91.63;39.77;;;;;;;2.34;100.00;99928.02;3619609;80;98929;-85
2022/11/24 02:31:51;;;;;;;92.50;38.45;;;;;;;2.33;100.00;99932.67;3636126;80;26310;-86
2022/11/24 02:36:52;;;;;;;103.47;41.53;;;;;;;2.31;100.00;99916.48;3620916;80;98437;-85
2022/11/24 02:42:04;;;;;;;112.27;44.43;;;;;;;2.26;100.00;99918.05;3629738;80;34920;-86
2022/11/24 02:47:08;;;;;;;100.67;41.55;;;;;;;2.25;100.00;99914.52;3614496;80;98570;-86
2022/11/24 02:52:09;;;;;;;106.27;41.20;;;;;;;2.26;100.00;99911.26;3630912;80;26950;-86
2022/11/24 02:57:10;;;;;;;109.53;43.13;;;;;;;2.25;100.00;99918.59;3618337;80;98642;-86
2022/11/24 03:02:11;;;;;;;88.57;37.30;;;;;;;2.31;100.00;99925.98;3627403;80;35487;-85
2022/11/24 03:07:12;;;;;;;104.53;41.00;;;;;;;2.32;100.00;99934.34;3617063;80;98283;-85
2022/11/24 03:12:13;;;;;;;83.47;34.73;;;;;;;2.31;100.00;99936.84;3626032;80;35346;-85
2022/11/24 03:17:14;;;;;;;88.67;37.23;;;;;;;2.33;100.00;99933.22;3636981;79;98534;-86
2022/11/24 03:22:15;;;;;;;98.43;39.10;;;;;;;2.34;100.00;99930.73;3638172;80;34815;-85
2022/11/24 03:27:15;;;;;;;94.90;37.87;;;;;;;2.36;100.00;99928.49;3629391;80;98578;-85
2022/11/24 03:32:16;;;;;;;86.35;34.73;;;;;;;2.38;100.00;99928.39;3629713;80;35146;-85
2022/11/24 03:37:17;;;;;;;88.73;34.53;;;;;;;2.41;100.00;99933.71;3615611;80;98458;-85
2022/11/24 03:42:17;;;;;;;102.27;41.30;;;;;;;2.41;100.00;99933.13;3636946;80;26364;-85
2022/11/24 03:47:18;;;;;;;94.97;37.23;;;;;;;2.35;100.00;99932.34;3623191;80;98862;-86
2022/11/24 03:52:19;;;;;;;102.40;39.73;;;;;;;2.33;100.00;99940.00;3626386;80;33089;-86
2022/11/24 03:57:20;;;;;;;95.83;37.63;;;;;;;2.34;100.00;99942.39;3616436;79;98714;-85
2022/11/24 04:02:20;;;;;;;102.03;39.53;;;;;;;2.36;100.00;99944.78;3616378;79;33155;-85
2022/11/24 04:07:21;;;;;;;103.33;40.70;;;;;;;2.39;100.00;99949.53;3603996;81;98816;-86
2022/11/24 04:17:42;;;;;;;106.75;42.53;;;;;;;2.31;100.00;99949.87;3610152;79;98499;-86
2022/11/24 04:22:43;;;;;;;97.75;39.42;;;;;;;2.33;100.00;99958.46;3620364;81;33388;-86
2022/11/24 04:27:44;;;;;;;90.00;37.73;;;;;;;2.35;100.00;99958.13;3607888;79;98606;-85
2022/11/24 04:32:45;;;;;;;94.77;35.53;;;;;;;2.35;100.00;99961.63;3609159;79;25953;-86
2022/11/24 04:37:46;;;;;;;102.10;40.53;;;;;;;2.36;100.00;99973.30;3606270;80;98396;-86
2022/11/24 04:42:54;;;;;;;95.90;38.30;;;;;;;2.34;100.00;99979.05;3620923;80;26278;-86
2022/11/24 04:47:55;;;;;;;89.75;35.00;;;;;;;2.36;100.00;99978.72;3623652;79;98827;-84
2022/11/24 04:52:56;;;;;;;101.07;40.97;;;;;;;2.38;100.00;99979.17;3617291;80;25960;-85
2022/11/24 04:57:56;;;;;;;105.07;45.20;;;;;;;2.40;100.00;99978.30;3622048;80;98631;-86
2022/11/24 05:02:57;;;;;;;95.40;35.63;;;;;;;2.34;100.00;99976.33;3625102;80;26537;-85
2022/11/24 05:07:59;;;;;;;100.13;38.17;;;;;;;2.30;100.00;99976.77;3626834;79;98377;-85
2022/11/24 05:13:02;;;;;;;97.57;37.10;;;;;;;2.27;100.00;99977.99;3632939;80;26132;-85
2022/11/24 05:18:11;;;;;;;102.47;37.17;;;;;;;2.23;100.00;99978.42;3622817;80;98494;-86
2022/11/24 05:23:12;;;;;;;99.07;39.13;;;;;;;2.18;100.00;99982.14;3629520;80;99040;-87
2022/11/24 05:28:13;;;;;;;93.20;34.13;;;;;;;2.18;100.00;99985.44;3627511;80;26581;-86
2022/11/24 05:33:17;;;;;;;101.90;39.47;;;;;;;2.22;100.00;99993.13;3627403;80;98776;-86
2022/11/24 05:38:19;;;;;;;102.05;39.15;;;;;;;2.20;100.00;99999.46;3625219;80;32610;-85
2022/11/24 05:43:20;;;;;;;109.63;42.78;;;;;;;2.21;100.00;99994.26;3634379;80;99062;-87
2022/11/24 05:48:21;;;;;;;99.40;37.43;;;;;;;2.16;100.00;100005.31;3629763;80;26298;-86
2022/11/24 05:53:22;;;;;;;89.62;36.40;;;;;;;2.20;100.00;100008.97;3631906;80;98899;-85
2022/11/24 05:58:23;;;;;;;95.07;37.47;;;;;;;2.21;100.00;100015.42;3637741;80;26382;-86
2022/11/24 06:03:24;;;;;;;101.67;38.07;;;;;;;2.22;100.00;100021.62;3619577;79;99086;-86
2022/11/24 06:08:24;;;;;;;82.20;35.20;;;;;;;2.19;100.00;100021.73;3646001;80;26465;-87
2022/11/24 06:13:25;;;;;;;97.97;37.90;;;;;;;2.18;100.00;100022.86;3643233;80;98894;-86
2022/11/24 06:18:26;;;;;;;81.72;33.20;;;;;;;2.24;100.00;100025.61;3650242;80;26412;-86
2022/11/24 06:23:27;;;;;;;92.47;35.20;;;;;;;2.27;100.00;100035.01;3646171;80;98886;-87
2022/11/24 06:28:28;;;;;;;105.43;40.87;;;;;;;2.22;100.00;100042.80;3644657;80;33403;-87
2022/11/24 06:33:32;;;;;;;234.12;106.97;;;;;;;2.20;100.00;100046.39;3633664;79;99089;-84
2022/11/24 06:38:35;;;;;;;95.17;38.13;;;;;;;2.14;100.00;100049.06;3550020;82;25980;-84
2022/11/24 06:43:36;;;;;;;118.08;43.28;;;;;;;2.09;100.00;100056.05;3638218;80;99089;-85
2022/11/24 06:48:38;;;;;;;149.13;46.73;;;;;;;2.03;100.00;100068.22;3645678;80;33038;-84
2022/11/24 06:53:40;;;;;;;151.63;57.80;;;;;;;2.00;100.00;100072.97;3634131;80;99314;-84
2022/11/24 06:58:43;;;;;;;231.60;66.57;;;;;;;1.96;100.00;100081.52;3649519;79;26263;-84
2022/11/24 07:03:45;;;;;;;137.77;44.87;;;;;;;1.98;100.00;100086.62;3631584;80;99554;-84
2022/11/24 07:08:47;;;;;;;105.27;36.67;;;;;;;1.98;100.00;100088.77;3658432;80;25765;-85
2022/11/24 07:13:50;;;;;;;192.07;69.30;;;;;;;1.98;100.00;100093.41;3636045;80;99016;-84
2022/11/24 07:18:52;;;;;;;140.32;44.00;;;;;;;2.01;100.00;100095.45;3646627;80;25884;-83
2022/11/24 07:23:56;;;;;;;104.27;38.53;;;;;;;2.01;100.00;100102.23;3641909;80;99054;-86
2022/11/24 07:28:57;;;;;;;122.23;42.47;;;;;;;2.00;100.00;100111.51;3634919;80;26069;-86
2022/11/24 07:33:57;;;;;;;91.60;36.50;;;;;;;2.04;100.00;100109.73;3632957;79;99083;-84
2022/11/24 07:38:58;;;;;;;95.47;36.17;;;;;;;2.05;100.00;100109.42;3638183;80;32852;-84
2022/11/24 07:43:59;;;;;;;122.55;40.83;;;;;;;2.07;100.00;100111.81;3625075;80;99014;-84
2022/11/24 07:49:00;;;;;;;109.43;40.33;;;;;;;2.09;100.00;100116.34;3639530;80;32907;-84
2022/11/24 07:54:01;;;;;;;98.60;37.07;;;;;;;2.07;100.00;100111.23;3637409;80;99057;-84
2022/11/24 07:59:02;;;;;;;95.77;36.77;;;;;;;2.11;100.00;100108.10;3641842;79;31972;-85
2022/11/24 08:04:04;;;;;;;110.27;42.47;;;;;;;2.17;100.00;100115.48;3637147;80;99079;-84
2022/11/24 08:09:05;;;;;;;114.40;42.50;;;;;;;2.21;100.00;100110.98;3636516;80;32682;-84
2022/11/24 08:14:05;;;;;;;133.30;44.83;;;;;;;2.24;100.00;100115.19;3642113;80;99150;-84
2022/11/24 08:19:07;;;;;;;134.10;48.40;;;;;;;2.27;100.00;100122.70;3649330;80;31064;-84
2022/11/24 08:24:08;;;;;;;117.50;44.05;;;;;;;2.28;100.00;100123.47;3641209;80;99253;-84
2022/11/24 08:29:09;;;;;;;125.47;45.37;;;;;;;2.31;100.00;100133.69;3629711;80;31631;-85
2022/11/24 08:34:10;;;;;;;119.30;46.05;;;;;;;2.39;100.00;100130.11;3643254;80;99178;-84
2022/11/24 08:39:10;;;;;;;126.43;45.63;;;;;;;2.46;100.00;100135.83;3643007;80;31627;-86
2022/11/24 08:44:14;;;;;;;111.87;42.50;;;;;;;2.52;100.00;100139.94;3638818;80;98897;-86
2022/11/24 08:49:14;;;;;;;118.83;44.77;;;;;;;2.53;100.00;100147.77;3646963;80;31718;-84
2022/11/24 08:54:17;;;;;;;120.17;44.10;;;;;;;2.58;100.00;100142.11;3637901;79;99242;-84
2022/11/24 08:59:18;;;;;;;118.22;42.90;;;;;;;2.62;100.00;100140.33;3634623;80;31467;-85
2022/11/24 09:04:19;;;;;;;115.37;44.53;;;;;;;2.66;100.00;100140.45;3629140;80;98895;-85
2022/11/24 09:09:19;;;;;;;110.30;42.83;;;;;;;2.72;100.00;100141.84;3634126;80;31673;-85
2022/11/24 09:14:20;;;;;;;127.53;44.93;;;;;;;2.75;100.00;100146.63;3641118;80;99100;-85
2022/11/24 09:19:21;;;;;;;124.57;44.63;;;;;;;2.77;100.00;100144.36;3647477;80;31593;-86
2022/11/24 09:24:22;;;;;;;110.80;43.60;;;;;;;2.80;100.00;100147.79;3634776;80;99056;-85
2022/11/24 09:29:23;;;;;;;127.90;47.67;;;;;;;2.83;100.00;100156.06;3573368;82;30665;-86
2022/11/24 09:34:24;;;;;;;115.07;41.17;;;;;;;2.88;100.00;100150.98;3642581;80;98800;-84
2022/11/24 09:39:24;;;;;;;118.57;43.80;;;;;;;2.93;100.00;100156.22;3646351;80;29340;-85
2022/11/24 09:44:46;;;;;;;118.55;45.25;;;;;;;3.03;100.00;100160.70;3640852;80;99118;-86
2022/11/24 09:50:08;;;;;;;132.77;50.57;;;;;;;3.07;100.00;100166.27;3640644;79;27852;-85
2022/11/24 09:55:39;;;;;;;114.70;42.37;;;;;;;3.20;100.00;100173.33;3639666;80;99208;-83
2022/11/24 10:00:41;;;;;;;121.23;45.40;;;;;;;3.17;100.00;100176.73;3636843;79;26890;-84
2022/11/24 10:05:44;;;;;;;113.63;44.13;;;;;;;3.25;100.00;100179.92;3639039;80;99173;-85
2022/11/24 10:11:02;;;;;;;123.17;52.53;;;;;;;3.32;100.00;100170.65;3645887;80;26887;-85
2022/11/24 10:16:23;;;;;;;153.77;60.10;;;;;;;3.39;100.00;100174.42;3634057;80;99179;-85
2022/11/24 10:21:58;;;;;;;112.92;44.77;;;;;;;3.48;100.00;100177.86;3637225;80;30425;-85
2022/11/24 10:27:17;;;;;;;110.63;43.93;;;;;;;3.45;100.00;100182.59;3636908;79;99022;-84
2022/11/24 10:32:32;;;;;;;111.47;43.03;;;;;;;3.38;100.00;100185.66;3596468;80;26137;-85
2022/11/24 10:37:39;;;;;;;103.38;39.53;;;;;;;3.38;100.00;100179.63;3626672;80;99092;-85
2022/11/24 10:42:39;;;;;;;120.80;45.43;;;;;;;3.32;100.00;100185.61;3621780;80;27199;-85
2022/11/24 10:47:42;;;;;;;94.30;38.97;;;;;;;3.30;100.00;100185.97;3642736;79;99198;-86
2022/11/24 10:52:57;;;;;;;118.73;46.57;;;;;;;3.30;100.00;100186.52;3628125;80;27445;-85
2022/11/24 10:58:15;;;;;;;113.67;43.10;;;;;;;3.21;100.00;100176.28;3627814;79;98556;-85
2022/11/24 11:03:23;;;;;;;117.63;44.57;;;;;;;3.24;100.00;100182.42;3621455;79;99030;-85
2022/11/24 11:08:30;;;;;;;126.03;46.43;;;;;;;3.26;100.00;100174.71;3632611;79;26188;-85
2022/11/24 11:13:31;;;;;;;121.65;45.60;;;;;;;3.26;100.00;100170.08;3622468;79;99305;-85
2022/11/24 11:18:32;;;;;;;124.70;49.33;;;;;;;3.30;100.00;100168.29;3645015;79;35509;-85
2022/11/24 11:23:35;;;;;;;129.95;47.62;;;;;;;3.41;100.00;100180.34;3625169;79;98883;-85
2022/11/24 11:28:36;;;;;;;123.47;48.85;;;;;;;3.44;100.00;100178.88;3625455;81;28844;-86
2022/11/24 11:33:37;;;;;;;114.80;45.50;;;;;;;3.43;100.00;100175.34;3614878;79;98981;-85
2022/11/24 11:38:39;;;;;;;114.63;46.00;;;;;;;3.52;100.00;100178.78;3621351;79;36003;-85
2022/11/24 11:43:44;;;;;;;119.25;44.33;;;;;;;3.54;100.00;100190.66;3625214;79;99132;-84
2022/11/24 11:48:46;;;;;;;117.80;43.40;;;;;;;3.59;100.00;100180.94;3632560;79;30397;-85
2022/11/24 11:53:58;;;;;;;122.53;44.83;;;;;;;3.62;100.00;100186.52;3619938;79;99245;-85
2022/11/24 11:59:14;;;;;;;116.10;44.57;;;;;;;3.67;100.00;100185.50;3616308;79;27859;-86
2022/11/24 12:04:56;;;;;;;116.93;46.73;;;;;;;3.71;100.00;100185.06;3592457;80;99017;-85
2022/11/24 12:10:28;;;;;;;118.33;44.25;;;;;;;3.76;100.00;100186.22;3604768;80;31333;-86
2022/11/24 12:15:43;;;;;;;102.90;39.53;;;;;;;3.77;100.00;100191.30;3581929;80;99111;-86
2022/11/24 12:21:19;;;;;;;125.20;48.33;;;;;;;3.78;100.00;100187.44;3612298;80;26914;-84
2022/11/24 12:26:31;;;;;;;113.20;44.15;;;;;;;3.83;100.00;100201.42;3594298;80;98912;-85
2022/11/24 12:31:58;;;;;;;119.28;44.30;;;;;;;3.78;100.00;100196.19;3584018;81;30237;-86
2022/11/24 12:37:27;;;;;;;117.75;44.88;;;;;;;3.76;100.00;100199.82;3588583;80;98989;-85
2022/11/24 12:43:14;;;;;;;113.90;45.27;;;;;;;3.80;100.00;100202.08;3607845;80;27855;-85
2022/11/24 12:48:24;;;;;;;;;;;;;;;3.83;100.00;100201.42;3606702;80;25901;-85
2022/11/24 12:53:33;;;;;;;108.05;42.45;;;;;;;3.77;100.00;100204.91;3591091;80;89556;-86
2022/11/24 12:58:49;;;;;;;111.20;43.65;;;;;;;3.75;100.00;100212.63;3583556;81;28841;-85
2022/11/24 13:04:21;;;;;;;99.20;37.50;;;;;;;3.72;100.00;100209.20;3576359;81;98863;-86
2022/11/24 13:09:22;;;;;;;124.43;47.20;;;;;;;3.73;100.00;100194.48;3588180;81;28845;-86
2022/11/24 13:14:36;;;;;;;102.67;39.63;;;;;;;3.80;100.00;100201.52;3581944;80;99028;-86
2022/11/24 13:19:37;;;;;;;95.20;35.63;;;;;;;3.83;100.00;100204.14;3593956;80;29813;-86
2022/11/24 13:24:39;;;;;;;108.50;42.77;;;;;;;3.88;100.00;100208.78;3587462;80;99128;-84
2022/11/24 13:29:46;;;;;;;107.83;41.10;;;;;;;3.90;100.00;100211.17;3588232;80;26527;-85
2022/11/24 13:34:56;;;;;;;98.47;38.00;;;;;;;3.82;100.00;100214.22;3581028;80;99187;-86
2022/11/24 13:40:04;;;;;;;105.17;39.47;;;;;;;3.85;100.00;100219.00;3568143;80;26571;-85
2022/11/24 13:45:10;;;;;;;103.60;39.60;;;;;;;3.86;100.00;100214.33;3564796;80;99305;-86
2022/11/24 13:50:23;;;;;;;;;;;;;;;3.88;100.00;100218.31;3574656;80;26274;-86
2022/11/24 13:55:29;;;;;;;112.13;44.07;;;;;;;3.90;100.00;100220.15;3576720;80;84853;-86
2022/11/24 14:00:34;;;;;;;123.80;44.17;;;;;;;3.89;100.00;100220.48;3575521;80;26425;-86
2022/11/24 14:05:39;;;;;;;110.28;41.70;;;;;;;3.87;100.00;100235.00;3561826;81;99081;-84
2022/11/24 14:10:41;;;;;;;105.32;40.90;;;;;;;3.81;100.00;100236.32;3565979;81;28942;-84
2022/11/24 14:15:42;;;;;;;108.93;43.67;;;;;;;3.79;100.00;100233.16;3554026;81;99134;-86
2022/11/24 14:20:42;;;;;;;107.27;44.47;;;;;;;3.78;100.00;100243.23;3560083;81;35601;-85
2022/11/24 14:25:49;;;;;;;105.53;42.77;;;;;;;3.76;100.00;100256.39;3560263;80;99629;-85
2022/11/24 14:30:50;;;;;;;;;;;;;;;3.76;100.00;100250.95;3599577;80;26402;-84
2022/11/24 14:35:51;;;;;;;99.80;42.03;;;;;;;3.73;100.00;100254.36;3592908;80;84804;-86
2022/11/24 14:40:54;;;;;;;114.13;44.50;;;;;;;3.72;100.00;100259.55;3600541;80;34958;-85
2022/11/24 14:46:13;;;;;;;131.43;46.80;;;;;;;3.68;100.00;100264.09;3588689;81;99048;-85
2022/11/24 14:51:19;;;;;;;130.30;51.93;;;;;;;3.63;100.00;100271.10;3567869;82;26344;-85
2022/11/24 14:56:36;;;;;;;129.72;54.70;;;;;;;3.63;100.00;100269.74;3567646;81;99175;-85
2022/11/24 15:01:38;;;;;;;116.70;44.05;;;;;;;3.63;100.00;100276.55;3558881;81;30830;-85
2022/11/24 15:06:42;;;;;;;129.12;49.15;;;;;;;3.64;100.00;100277.32;3564510;81;98903;-85
2022/11/24 15:11:42;;;;;;;139.57;55.60;;;;;;;3.58;100.00;100282.19;3567589;81;26102;-86
2022/11/24 15:16:43;;;;;;;137.67;49.17;;;;;;;3.57;100.00;100280.60;3552531;81;99158;-86
2022/11/24 15:21:44;;;;;;;131.30;48.10;;;;;;;3.54;100.00;100283.17;3556359;81;34916;-87
2022/11/24 15:26:45;;;;;;;124.50;48.90;;;;;;;3.48;100.00;100288.59;3549474;80;99165;-87
2022/11/24 15:31:46;;;;;;;134.10;48.20;;;;;;;3.42;100.00;100287.20;3552644;81;34823;-86
2022/11/24 15:36:47;;;;;;;137.07;54.53;;;;;;;3.40;100.00;100290.83;3546850;81;98945;-86
2022/11/24 15:41:48;;;;;;;139.67;56.10;;;;;;;3.35;100.00;100297.28;3533906;81;35105;-86
2022/11/24 15:46:48;;;;;;;131.10;49.53;;;;;;;3.35;100.00;100297.83;3554387;80;98882;-86
2022/11/24 15:51:49;;;;;;;136.77;51.65;;;;;;;3.34;100.00;100310.62;3554338;81;35969;-86
2022/11/24 15:56:50;;;;;;;144.97;54.80;;;;;;;3.32;100.00;100313.44;3542675;80;98943;-86
2022/11/24 16:01:51;;;;;;;142.93;54.50;;;;;;;3.30;100.00;100319.23;3556907;81;25854;-87
2022/11/24 16:06:52;;;;;;;138.37;54.30;;;;;;;3.28;100.00;100312.53;3606472;79;99265;-87
2022/11/24 16:11:53;;;;;;;132.13;50.50;;;;;;;3.26;100.00;100317.48;3615321;79;32684;-87
2022/11/24 16:16:54;;;;;;;131.13;50.53;;;;;;;3.23;100.00;100323.60;3629398;79;98749;-86
2022/11/24 16:21:55;;;;;;;124.00;51.03;;;;;;;3.22;100.00;100326.09;3623102;79;32574;-86
2022/11/24 16:26:55;;;;;;;145.20;56.17;;;;;;;3.20;100.00;100336.48;3627736;79;99166;-87
2022/11/24 16:31:56;;;;;;;152.83;57.13;;;;;;;3.21;100.00;100336.71;3626573;79;32484;-86
2022/11/24 16:36:57;;;;;;;141.15;55.70;;;;;;;3.21;100.00;100348.40;3614371;79;99046;-86
2022/11/24 16:41:58;;;;;;;145.80;52.30;;;;;;;3.21;100.00;100347.59;3629632;79;27429;-86
2022/11/24 16:46:59;;;;;;;148.67;55.37;;;;;;;3.17;100.00;100351.53;3632674;79;98849;-87
2022/11/24 16:51:59;;;;;;;131.10;51.37;;;;;;;3.15;100.00;100353.80;3636803;79;26336;-87
2022/11/24 16:57:00;;;;;;;155.87;57.73;;;;;;;3.15;100.00;100361.14;3629227;79;98883;-87
2022/11/24 17:02:01;;;;;;;138.00;52.33;;;;;;;3.13;100.00;100356.06;3603683;80;26345;-87
2022/11/24 17:07:02;;;;;;;142.30;51.17;;;;;;;3.07;100.00;100368.22;3594059;80;99064;-88
2022/11/24 17:12:03;;;;;;;156.03;58.40;;;;;;;3.06;100.00;100365.27;3601286;80;26202;-88
2022/11/24 17:17:04;;;;;;;151.20;58.83;;;;;;;3.08;100.00;100370.39;3596233;80;98569;-88
2022/11/24 17:22:04;;;;;;;131.57;48.67;;;;;;;3.06;100.00;100373.43;3606581;80;26373;-88
2022/11/24 17:27:05;;;;;;;149.63;52.60;;;;;;;3.06;100.00;100375.38;3594762;80;99084;-88
2022/11/24 17:32:06;;;;;;;127.80;51.47;;;;;;;3.08;100.00;100382.08;3610876;80;33256;-88
2022/11/24 17:37:07;;;;;;;140.83;50.20;;;;;;;3.10;100.00;100387.97;3592153;80;98997;-88
2022/11/24 17:42:07;;;;;;;157.30;57.50;;;;;;;3.13;100.00;100402.84;3601503;80;33183;-88
2022/11/24 17:47:08;;;;;;;154.60;55.67;;;;;;;3.12;100.00;100397.95;3600799;80;98996;-88
2022/11/24 17:52:09;;;;;;;155.90;61.00;;;;;;;3.10;100.00;100408.91;3599524;80;33162;-87
2022/11/24 17:57:10;;;;;;;159.00;56.13;;;;;;;3.09;100.00;100410.05;3600425;80;98814;-88
2022/11/24 18:02:11;;;;;;;153.33;60.80;;;;;;;3.10;100.00;100413.80;3630192;79;32340;-87
2022/11/24 18:07:12;;;;;;;152.60;57.07;;;;;;;3.11;100.00;100419.47;3623003;79;99085;-87
2022/11/24 18:12:13;;;;;;;141.50;55.00;;;;;;;3.12;100.00;100431.94;3633436;79;32160;-88
2022/11/24 18:17:13;;;;;;;146.60;55.83;;;;;;;3.14;100.00;100426.98;3625656;79;98850;-88
2022/11/24 18:22:14;;;;;;;164.53;63.77;;;;;;;3.17;100.00;100426.31;3631841;79;31662;-88
2022/11/24 18:27:15;;;;;;;147.10;60.70;;;;;;;3.17;100.00;100422.81;3614504;79;98982;-88
2022/11/24 18:32:16;;;;;;;169.40;65.25;;;;;;;3.15;100.00;100430.48;3612218;79;31655;-87
2022/11/24 18:37:17;;;;;;;181.50;68.50;;;;;;;3.16;100.00;100434.82;3612309;79;98810;-88
2022/11/24 18:42:19;;;;;;;169.60;64.97;;;;;;;3.18;100.00;100429.27;3629413;79;29796;-87
2022/11/24 18:47:20;;;;;;;195.30;66.37;;;;;;;3.20;100.00;100430.30;3621774;81;98866;-87
2022/11/24 18:52:21;;;;;;;167.40;62.03;;;;;;;3.21;100.00;100425.09;3619366;79;34808;-86
2022/11/24 18:57:21;;;;;;;171.13;60.48;;;;;;;3.18;100.00;100428.48;3605549;79;99042;-86
2022/11/24 19:02:23;;;;;;;168.10;57.43;;;;;;;3.17;100.00;100434.47;3604208;79;35554;-87
2022/11/24 19:07:23;;;;;;;152.53;54.60;;;;;;;3.16;100.00;100428.02;3596907;80;98748;-87
2022/11/24 19:12:24;;;;;;;158.50;54.53;;;;;;;3.15;100.00;100433.20;3611480;80;34837;-87
2022/11/24 19:17:25;;;;;;;152.57;56.27;;;;;;;3.17;100.00;100429.61;3591140;80;98891;-87
2022/11/24 19:22:26;;;;;;;138.37;52.20;;;;;;;3.18;100.00;100433.92;3603267;80;34879;-87
2022/11/24 19:27:28;;;;;;;155.93;64.25;;;;;;;3.17;100.00;100437.19;3599781;80;98600;-87
2022/11/24 19:32:31;;;;;;;163.43;63.77;;;;;;;3.17;100.00;100425.53;3542201;81;32021;-86
2022/11/24 19:37:32;;;;;;;147.20;54.40;;;;;;;3.17;100.00;100435.83;3594612;80;98973;-86
2022/11/24 19:42:32;;;;;;;165.90;62.63;;;;;;;3.18;100.00;100433.34;3600095;80;25871;-87
2022/11/24 19:47:33;;;;;;;153.12;56.95;;;;;;;3.20;100.00;100439.27;3581141;80;98942;-86
2022/11/24 19:52:34;;;;;;;140.17;54.57;;;;;;;3.22;100.00;100433.51;3600263;80;34185;-87
2022/11/24 19:57:35;;;;;;;158.13;55.53;;;;;;;3.19;100.00;100440.95;3600180;80;99125;-87
2022/11/24 20:02:36;;;;;;;152.30;63.73;;;;;;;3.21;100.00;100441.41;3606991;81;32528;-86
2022/11/24 20:07:37;;;;;;;144.77;58.20;;;;;;;3.21;100.00;100443.58;3622251;79;98671;-87
2022/11/24 20:12:38;;;;;;;147.23;55.63;;;;;;;3.23;100.00;100448.11;3632845;79;32481;-87
2022/11/24 20:17:38;;;;;;;137.72;57.65;;;;;;;3.24;100.00;100470.13;3624552;79;99149;-87
2022/11/24 20:22:39;;;;;;;171.60;65.70;;;;;;;3.23;100.00;100469.88;3635640;79;27538;-86
2022/11/24 20:27:40;;;;;;;163.83;62.33;;;;;;;3.26;100.00;100468.42;3618214;79;98694;-86
2022/11/24 20:32:41;;;;;;;168.13;58.90;;;;;;;3.25;100.00;100474.44;3622236;79;26498;-86
2022/11/24 20:37:42;;;;;;;166.00;63.23;;;;;;;3.25;100.00;100481.23;3587574;81;99155;-87
2022/11/24 20:42:43;;;;;;;156.27;61.67;;;;;;;3.27;100.00;100485.78;3615974;81;26465;-85
2022/11/24 20:47:44;;;;;;;153.03;54.83;;;;;;;3.26;100.00;100482.02;3616993;79;98740;-86
2022/11/24 20:52:44;;;;;;;160.00;59.57;;;;;;;3.26;100.00;100490.17;3619029;79;26633;-86
2022/11/24 20:57:45;;;;;;;159.60;59.63;;;;;;;3.29;100.00;100493.03;3622801;79;98735;-87
2022/11/24 21:02:46;;;;;;;185.12;73.10;;;;;;;3.30;100.00;100493.84;3610616;79;25906;-86
2022/11/24 21:07:47;;;;;;;179.50;66.92;;;;;;;3.30;100.00;100497.38;3599597;80;98605;-86
2022/11/24 21:12:47;;;;;;;179.80;69.25;;;;;;;3.29;100.00;100500.42;3602288;80;33401;-86
2022/11/24 21:17:48;;;;;;;190.18;68.47;;;;;;;3.28;100.00;100496.11;3594507;80;98851;-86
2022/11/24 21:22:49;;;;;;;192.80;69.90;;;;;;;3.23;100.00;100492.20;3610625;80;33811;-87
2022/11/24 21:27:50;;;;;;;163.47;65.17;;;;;;;3.22;100.00;100492.76;3590416;80;98759;-86
2022/11/24 21:32:50;;;;;;;160.00;61.20;;;;;;;3.21;100.00;100490.36;3581759;81;33719;-86
2022/11/24 21:37:51;;;;;;;174.90;65.53;;;;;;;3.23;100.00;100488.13;3584194;80;99033;-86
2022/11/24 21:42:52;;;;;;;184.43;66.60;;;;;;;3.24;100.00;100498.69;3591331;80;31646;-87
2022/11/24 21:47:53;;;;;;;167.90;68.10;;;;;;;3.22;100.00;100508.30;3582549;80;98839;-87
2022/11/24 21:52:53;;;;;;;167.47;64.43;;;;;;;3.17;100.00;100502.45;3587570;80;31634;-87
2022/11/24 21:57:54;;;;;;;192.43;71.57;;;;;;;3.18;100.00;100501.33;3579545;81;98987;-86
2022/11/24 22:02:55;;;;;;;191.43;65.30;;;;;;;3.17;100.00;100505.75;3612485;79;31619;-86
2022/11/24 22:07:56;;;;;;;175.67;68.40;;;;;;;3.08;100.00;100513.94;3606105;79;99024;-87
2022/11/24 22:12:56;;;;;;;168.27;62.17;;;;;;;3.11;100.00;100518.71;3612917;79;30567;-86
2022/11/24 22:17:57;;;;;;;163.87;63.87;;;;;;;3.10;100.00;100523.92;3610638;81;98948;-87
2022/11/24 22:22:58;;;;;;;184.37;65.23;;;;;;;3.07;100.00;100518.34;3620116;79;34834;-86
2022/11/24 22:27:59;;;;;;;159.43;59.47;;;;;;;3.03;100.00;100527.71;3609670;81;98720;-86
2022/11/24 22:33:00;;;;;;;175.10;67.10;;;;;;;2.98;100.00;100533.31;3605016;81;35137;-86
2022/11/24 22:38:00;;;;;;;164.83;63.07;;;;;;;2.97;100.00;100533.08;3616212;79;98560;-86
2022/11/24 22:43:01;;;;;;;156.77;56.87;;;;;;;2.99;100.00;100538.17;3618979;79;34843;-87
2022/11/24 22:48:02;;;;;;;168.73;61.77;;;;;;;2.92;100.00;100540.59;3605144;79;98956;-87
2022/11/24 22:53:02;;;;;;;156.60;58.70;;;;;;;2.92;100.00;100540.05;3616023;79;35131;-87